Time;durP1;ratioP1;P1;durP2;ratioP2;P2;SDS_P1;SDS_P2;PMS_P1;PMS_P2;Temp;Humidity;BMP_temperature;BMP_pressure;BME280_temperature;BME280_humidity;BME280_pressure;Samples;Min_cycle;Max_cycle;Signal;HPM_P1;HPM_P2
2022/04/22 00:01:29;;;;;;;57.97;2.50;;;;;;;;;;5087671;28;20880;-72
2022/04/22 00:03:57;;;;;;;58.17;2.40;;;;;;;;;;5085976;28;20981;-72
2022/04/22 00:06:27;;;;;;;58.03;2.70;;;;;;;;;;5090702;28;20971;-72
2022/04/22 00:08:54;;;;;;;58.03;2.80;;;;;;;;;;5090064;28;20566;-72
2022/04/22 00:11:30;;;;;;;58.10;2.67;;;;;;;;;;5092689;28;20467;-72
2022/04/22 00:13:58;;;;;;;58.30;2.90;;;;;;;;;;5083785;28;20519;-72
2022/04/22 00:16:25;;;;;;;58.03;2.50;;;;;;;;;;5092482;28;20464;-72
2022/04/22 00:18:53;;;;;;;58.30;2.67;;;;;;;;;;5090576;28;20580;-72
2022/04/22 00:21:21;;;;;;;57.97;2.70;;;;;;;;;;5084776;28;20547;-72
2022/04/22 00:23:49;;;;;;;58.30;2.90;;;;;;;;;;5089016;28;20566;-72
2022/04/22 00:26:16;;;;;;;58.33;3.43;;;;;;;;;;5090711;28;21026;-72
2022/04/22 00:28:43;;;;;;;58.23;2.70;;;;;;;;;;5090542;28;20495;-72
2022/04/22 00:31:10;;;;;;;57.97;2.40;;;;;;;;;;5089297;28;20555;-72
2022/04/22 00:33:37;;;;;;;58.03;2.60;;;;;;;;;;5092392;28;20527;-72
2022/04/22 00:36:06;;;;;;;57.97;2.40;;;;;;;;;;5084662;28;20560;-72
2022/04/22 00:38:34;;;;;;;57.97;2.57;;;;;;;;;;5091516;28;21023;-72
2022/04/22 00:41:01;;;;;;;58.03;2.47;;;;;;;;;;5090982;28;20521;-72
2022/04/22 00:43:28;;;;;;;57.97;2.60;;;;;;;;;;5083246;28;20563;-72
2022/04/22 00:45:56;;;;;;;58.07;2.50;;;;;;;;;;5088471;28;20719;-72
2022/04/22 00:48:23;;;;;;;58.28;2.60;;;;;;;;;;5089898;28;20480;-72
2022/04/22 00:50:51;;;;;;;58.05;2.50;;;;;;;;;;5092276;28;20284;-72
2022/04/22 00:53:19;;;;;;;58.10;2.27;;;;;;;;;;5090494;28;20237;-72
2022/04/22 00:55:47;;;;;;;58.17;2.60;;;;;;;;;;5089238;28;20544;-72
2022/04/22 00:58:14;;;;;;;58.07;2.60;;;;;;;;;;5086010;28;20924;-72
2022/04/22 01:00:41;;;;;;;58.27;2.80;;;;;;;;;;5090909;28;20449;-72
2022/04/22 01:03:09;;;;;;;58.08;2.47;;;;;;;;;;5090791;28;20493;-72
2022/04/22 01:11:07;;;;;;;58.17;2.58;;;;;;;;;;5082758;28;20209;-72
2022/04/22 01:13:35;;;;;;;58.20;2.50;;;;;;;;;;5088209;28;20677;-72
2022/04/22 01:16:02;;;;;;;58.25;2.63;;;;;;;;;;5088216;28;20291;-71
2022/04/22 01:18:29;;;;;;;57.88;2.47;;;;;;;;;;5081832;28;20254;-71
2022/04/22 01:21:01;;;;;;;58.38;2.70;;;;;;;;;;5091823;28;20289;-71
2022/04/22 01:23:28;;;;;;;58.30;2.60;;;;;;;;;;5084073;28;20312;-71
2022/04/22 01:25:56;;;;;;;58.20;2.53;;;;;;;;;;5091731;28;20208;-71
2022/04/22 01:28:23;;;;;;;58.40;2.63;;;;;;;;;;5082271;28;20358;-71
2022/04/22 01:30:50;;;;;;;58.40;2.60;;;;;;;;;;5090181;28;20237;-72
2022/04/22 01:33:18;;;;;;;58.15;2.60;;;;;;;;;;5089474;28;20247;-71
2022/04/22 01:35:46;;;;;;;58.38;2.60;;;;;;;;;;5090494;28;20232;-72
2022/04/22 01:38:14;;;;;;;58.25;2.65;;;;;;;;;;5085204;28;20224;-71
2022/04/22 01:40:41;;;;;;;58.47;2.70;;;;;;;;;;5091688;28;20630;-72
2022/04/22 01:43:09;;;;;;;58.28;2.78;;;;;;;;;;5090708;28;20329;-72
2022/04/22 01:45:36;;;;;;;58.58;2.78;;;;;;;;;;5086827;28;20291;-72
2022/04/22 01:48:03;;;;;;;58.30;2.70;;;;;;;;;;5088154;28;20233;-72
2022/04/22 01:50:31;;;;;;;59.70;3.20;;;;;;;;;;5088128;28;20240;-71
2022/04/22 01:52:59;;;;;;;58.38;2.70;;;;;;;;;;5091418;28;20290;-71
2022/04/22 01:55:28;;;;;;;58.38;3.00;;;;;;;;;;5091638;28;20200;-71
2022/04/22 01:57:56;;;;;;;58.58;3.10;;;;;;;;;;5094878;28;20204;-71
2022/04/22 02:00:23;;;;;;;58.28;2.70;;;;;;;;;;5092296;28;20651;-71
2022/04/22 02:02:50;;;;;;;58.15;2.70;;;;;;;;;;5091675;28;20295;-71
2022/04/22 02:05:17;;;;;;;58.40;2.80;;;;;;;;;;5091636;28;20216;-71
2022/04/22 02:07:45;;;;;;;58.17;2.55;;;;;;;;;;5087095;28;20297;-71
2022/04/22 02:10:13;;;;;;;58.35;2.67;;;;;;;;;;5095123;28;20232;-71
2022/04/22 02:12:41;;;;;;;58.15;2.70;;;;;;;;;;5093473;28;20204;-71
2022/04/22 02:15:09;;;;;;;58.38;2.78;;;;;;;;;;5090409;28;20216;-71
2022/04/22 02:17:36;;;;;;;58.47;2.70;;;;;;;;;;5090214;28;20204;-71
2022/04/22 02:20:04;;;;;;;58.35;2.65;;;;;;;;;;5090282;28;20235;-72
2022/04/22 02:22:31;;;;;;;58.35;2.90;;;;;;;;;;5095054;28;20298;-71
2022/04/22 02:25:00;;;;;;;58.47;2.72;;;;;;;;;;5093994;28;20208;-71
2022/04/22 02:30:28;;;;;;;58.17;2.85;;;;;;;;;;5062053;28;20313;-72
2022/04/22 02:32:56;;;;;;;58.47;2.70;;;;;;;;;;5063706;28;20630;-72
2022/04/22 02:35:23;;;;;;;57.85;2.63;;;;;;;;;;5058104;28;20209;-71
2022/04/22 02:37:50;;;;;;;58.65;2.83;;;;;;;;;;5090721;28;20200;-71
2022/04/22 02:45:44;;;;;;;58.03;2.60;;;;;;;;;;5079029;28;20216;-71
2022/04/22 02:48:11;;;;;;;58.47;2.90;;;;;;;;;;5090013;28;20204;-71
2022/04/22 02:50:39;;;;;;;57.92;2.60;;;;;;;;;;5094239;28;20299;-72
2022/04/22 02:53:06;;;;;;;58.35;2.70;;;;;;;;;;5092971;28;20192;-72
2022/04/22 02:55:34;;;;;;;58.55;2.80;;;;;;;;;;5094156;28;20215;-72
2022/04/22 02:58:01;;;;;;;58.45;2.63;;;;;;;;;;5091630;28;20352;-72
2022/04/22 03:00:28;;;;;;;58.60;3.17;;;;;;;;;;5089722;28;20192;-72
2022/04/22 03:02:57;;;;;;;58.38;2.85;;;;;;;;;;5074321;28;20331;-72
2022/04/22 03:05:24;;;;;;;57.92;2.90;;;;;;;;;;5086009;28;20307;-72
2022/04/22 03:07:51;;;;;;;58.40;2.80;;;;;;;;;;5093531;28;20300;-72
2022/04/22 03:10:18;;;;;;;58.25;2.80;;;;;;;;;;5083682;28;20712;-72
2022/04/22 03:12:45;;;;;;;58.28;2.70;;;;;;;;;;5092650;28;20581;-71
2022/04/22 03:15:16;;;;;;;58.50;2.85;;;;;;;;;;5094035;28;20204;-71
2022/04/22 03:17:44;;;;;;;58.28;2.85;;;;;;;;;;5092150;28;20568;-71
2022/04/22 03:20:12;;;;;;;58.35;2.78;;;;;;;;;;5088684;28;20316;-71
2022/04/22 03:22:40;;;;;;;58.40;2.78;;;;;;;;;;5093532;28;20595;-71
2022/04/22 03:25:08;;;;;;;58.20;2.70;;;;;;;;;;5092611;28;20556;-71
2022/04/22 03:27:35;;;;;;;58.47;2.70;;;;;;;;;;5092145;28;20253;-72
2022/04/22 03:30:03;;;;;;;58.35;2.92;;;;;;;;;;5091379;28;20245;-72
2022/04/22 03:32:30;;;;;;;58.90;3.80;;;;;;;;;;5091490;28;20213;-71
2022/04/22 03:34:57;;;;;;;59.17;4.55;;;;;;;;;;5092181;28;20215;-71
2022/04/22 03:37:26;;;;;;;58.47;2.90;;;;;;;;;;5093082;28;20196;-71
2022/04/22 03:39:53;;;;;;;58.22;3.50;;;;;;;;;;5093646;28;20250;-71
2022/04/22 03:42:20;;;;;;;58.42;3.03;;;;;;;;;;5085571;28;20211;-71
2022/04/22 03:44:47;;;;;;;58.38;2.80;;;;;;;;;;5085903;28;20228;-71
2022/04/22 03:47:14;;;;;;;58.30;2.78;;;;;;;;;;5092585;28;20287;-71
2022/04/22 03:49:42;;;;;;;58.38;2.80;;;;;;;;;;5091684;28;20236;-71
2022/04/22 03:52:09;;;;;;;58.25;2.60;;;;;;;;;;5090023;28;20239;-71
2022/04/22 03:54:37;;;;;;;58.35;2.90;;;;;;;;;;5090915;28;20232;-71
2022/04/22 03:59:49;;;;;;;58.42;2.70;;;;;;;;;;5093038;28;20223;-71
2022/04/22 04:02:17;;;;;;;58.38;2.85;;;;;;;;;;5083152;28;20323;-71
2022/04/22 04:04:44;;;;;;;58.35;2.80;;;;;;;;;;5086230;28;20220;-71
2022/04/22 04:07:11;;;;;;;58.50;2.90;;;;;;;;;;5089918;28;20240;-71
2022/04/22 04:17:54;;;;;;;58.47;2.65;;;;;;;;;;5091111;28;20204;-71
2022/04/22 04:23:18;;;;;;;58.58;2.88;;;;;;;;;;5091402;28;20273;-72
2022/04/22 04:25:50;;;;;;;58.70;2.90;;;;;;;;;;5085082;28;20219;-72
2022/04/22 04:28:17;;;;;;;58.38;2.90;;;;;;;;;;5091918;28;20597;-71
2022/04/22 04:30:45;;;;;;;58.15;3.10;;;;;;;;;;5091282;28;20200;-72
2022/04/22 04:33:13;;;;;;;58.28;2.75;;;;;;;;;;5091303;28;20203;-72
2022/04/22 04:35:44;;;;;;;58.47;3.30;;;;;;;;;;5085822;28;20209;-71
2022/04/22 04:38:11;;;;;;;58.17;2.80;;;;;;;;;;5089525;28;20332;-71
2022/04/22 04:40:38;;;;;;;58.47;3.05;;;;;;;;;;5084123;28;20643;-71
2022/04/22 04:43:07;;;;;;;58.50;3.30;;;;;;;;;;5087626;28;20323;-71
2022/04/22 04:45:34;;;;;;;58.47;2.85;;;;;;;;;;5082606;28;20204;-71
2022/04/22 04:48:02;;;;;;;58.38;2.80;;;;;;;;;;5090529;28;20211;-71
2022/04/22 04:50:29;;;;;;;58.50;3.05;;;;;;;;;;5084250;28;20239;-71
2022/04/22 04:52:56;;;;;;;58.38;2.53;;;;;;;;;;5091929;28;20246;-71
2022/04/22 04:55:23;;;;;;;58.47;2.67;;;;;;;;;;5087842;28;20220;-72
2022/04/22 04:57:50;;;;;;;58.28;2.65;;;;;;;;;;5089978;28;20668;-69
2022/04/22 05:00:20;;;;;;;58.65;3.10;;;;;;;;;;5092489;28;20230;-73
2022/04/22 05:02:47;;;;;;;58.15;2.70;;;;;;;;;;5088544;28;20244;-73
2022/04/22 05:05:14;;;;;;;58.17;3.00;;;;;;;;;;5089695;28;20224;-72
2022/04/22 05:07:49;;;;;;;58.30;2.85;;;;;;;;;;5091169;28;20684;-72
2022/04/22 05:10:17;;;;;;;58.35;2.90;;;;;;;;;;5090224;28;20227;-72
2022/04/22 05:12:45;;;;;;;58.17;3.08;;;;;;;;;;5088202;28;20200;-72
2022/04/22 05:15:12;;;;;;;59.05;3.53;;;;;;;;;;5089438;28;20196;-72
2022/04/22 05:17:41;;;;;;;58.38;2.90;;;;;;;;;;5082010;28;20198;-72
2022/04/22 05:20:10;;;;;;;58.50;2.80;;;;;;;;;;5089056;28;20224;-73
2022/04/22 05:22:37;;;;;;;58.17;2.95;;;;;;;;;;5077178;28;20206;-73
2022/04/22 05:25:05;;;;;;;58.35;2.88;;;;;;;;;;5083942;28;20229;-73
2022/04/22 05:27:32;;;;;;;58.30;2.80;;;;;;;;;;5091050;28;20203;-72
2022/04/22 05:32:47;;;;;;;58.05;3.10;;;;;;;;;;5082740;28;20212;-73
2022/04/22 05:35:15;;;;;;;58.38;2.72;;;;;;;;;;5093430;28;20249;-73
2022/04/22 05:37:49;;;;;;;58.17;2.72;;;;;;;;;;5095019;28;20201;-73
2022/04/22 05:40:17;;;;;;;58.20;2.85;;;;;;;;;;5094191;28;20224;-73
2022/04/22 05:42:44;;;;;;;60.15;3.25;;;;;;;;;;5093356;28;20584;-73
2022/04/22 05:45:12;;;;;;;58.30;2.53;;;;;;;;;;5095567;28;20223;-73
2022/04/22 05:47:40;;;;;;;58.00;2.90;;;;;;;;;;5093550;28;20211;-73
2022/04/22 05:50:09;;;;;;;58.17;2.70;;;;;;;;;;5094441;28;20271;-73
2022/04/22 05:52:37;;;;;;;58.50;3.28;;;;;;;;;;5092563;28;20580;-73
2022/04/22 05:55:05;;;;;;;58.17;2.45;;;;;;;;;;5095645;28;20572;-73
2022/04/22 05:57:32;;;;;;;58.28;2.60;;;;;;;;;;5088075;28;20202;-73
2022/04/22 05:59:59;;;;;;;59.92;4.25;;;;;;;;;;5095407;28;20316;-73
2022/04/22 06:02:27;;;;;;;58.13;3.00;;;;;;;;;;5091599;28;20196;-73
2022/04/22 06:04:54;;;;;;;58.10;2.70;;;;;;;;;;5090571;28;20232;-73
2022/04/22 06:07:22;;;;;;;58.03;2.78;;;;;;;;;;5094468;28;20201;-73
2022/04/22 06:12:34;;;;;;;58.15;2.55;;;;;;;;;;5087729;28;20311;-73
2022/04/22 06:15:04;;;;;;;58.20;2.50;;;;;;;;;;5093861;28;20287;-73
2022/04/22 06:17:32;;;;;;;58.05;2.53;;;;;;;;;;5094270;28;20201;-73
2022/04/22 06:19:59;;;;;;;58.08;2.45;;;;;;;;;;5093585;28;20231;-73
2022/04/22 06:22:28;;;;;;;57.88;2.80;;;;;;;;;;5084883;28;20205;-73
2022/04/22 06:24:55;;;;;;;58.77;3.40;;;;;;;;;;5093994;28;20593;-73
2022/04/22 06:27:26;;;;;;;58.17;2.70;;;;;;;;;;5092900;28;20527;-73
2022/04/22 06:29:54;;;;;;;58.33;3.20;;;;;;;;;;5094803;28;20839;-73
2022/04/22 06:32:22;;;;;;;58.28;2.40;;;;;;;;;;5091703;28;20289;-73
2022/04/22 06:34:50;;;;;;;57.87;2.80;;;;;;;;;;5095208;28;20251;-73
2022/04/22 06:37:17;;;;;;;58.40;3.00;;;;;;;;;;5092862;28;20458;-73
2022/04/22 06:48:00;;;;;;;58.60;3.30;;;;;;;;;;5087657;28;20968;-73
2022/04/22 06:50:28;;;;;;;58.07;2.60;;;;;;;;;;5083535;28;20663;-73
2022/04/22 06:52:55;;;;;;;57.87;2.63;;;;;;;;;;5085833;28;20848;-73
2022/04/22 06:55:25;;;;;;;58.47;3.43;;;;;;;;;;5092750;28;20916;-73
2022/04/22 06:57:52;;;;;;;59.57;3.40;;;;;;;;;;5084933;28;20960;-73
2022/04/22 07:00:20;;;;;;;58.13;3.00;;;;;;;;;;5089448;28;20501;-73
2022/04/22 07:02:47;;;;;;;57.87;2.57;;;;;;;;;;5089769;28;20466;-73
2022/04/22 07:05:14;;;;;;;57.97;2.50;;;;;;;;;;5089476;28;20484;-73
2022/04/22 07:07:42;;;;;;;57.93;2.40;;;;;;;;;;5087947;28;20468;-73
2022/04/22 07:10:10;;;;;;;57.67;2.30;;;;;;;;;;5088980;28;20488;-72
2022/04/22 07:12:38;;;;;;;58.07;2.60;;;;;;;;;;5083618;28;20545;-73
2022/04/22 07:15:06;;;;;;;57.67;2.47;;;;;;;;;;5089897;28;20463;-73
2022/04/22 07:17:34;;;;;;;57.73;2.60;;;;;;;;;;5086281;28;20461;-71
2022/04/22 07:20:03;;;;;;;57.87;2.40;;;;;;;;;;5092536;28;20484;-71
2022/04/22 07:22:30;;;;;;;58.00;2.50;;;;;;;;;;5087658;28;20469;-71
2022/04/22 07:24:58;;;;;;;57.97;2.50;;;;;;;;;;5090981;28;20572;-71
2022/04/22 07:27:30;;;;;;;57.87;2.50;;;;;;;;;;5083993;28;20472;-71
2022/04/22 07:29:59;;;;;;;57.77;2.53;;;;;;;;;;5062460;28;21209;-71
2022/04/22 07:32:26;;;;;;;58.20;2.60;;;;;;;;;;5065493;28;20477;-71
2022/04/22 07:34:54;;;;;;;58.13;3.00;;;;;;;;;;5077969;28;21134;-71
2022/04/22 07:37:22;;;;;;;58.00;2.50;;;;;;;;;;5091063;28;20510;-71
2022/04/22 07:39:49;;;;;;;58.03;2.30;;;;;;;;;;5084983;28;20854;-71
2022/04/22 07:42:18;;;;;;;57.87;2.50;;;;;;;;;;5091106;28;20468;-71
2022/04/22 07:47:33;;;;;;;58.07;2.60;;;;;;;;;;5092029;28;20953;-71
2022/04/22 07:50:05;;;;;;;57.97;2.53;;;;;;;;;;5089466;28;20586;-71
2022/04/22 07:52:33;;;;;;;58.03;2.50;;;;;;;;;;5092076;28;20470;-72
2022/04/22 07:55:00;;;;;;;59.87;2.70;;;;;;;;;;5087166;28;20469;-72
2022/04/22 07:57:27;;;;;;;58.20;2.80;;;;;;;;;;5086086;28;20556;-72
2022/04/22 07:59:55;;;;;;;57.97;2.60;;;;;;;;;;5091025;28;20494;-72
2022/04/22 08:02:22;;;;;;;57.90;2.50;;;;;;;;;;5087360;28;20989;-72
2022/04/22 08:04:50;;;;;;;57.90;2.50;;;;;;;;;;5088910;28;20589;-72
2022/04/22 08:07:18;;;;;;;58.07;2.53;;;;;;;;;;5089296;28;20473;-72
2022/04/22 08:09:46;;;;;;;58.20;2.80;;;;;;;;;;5086663;28;20486;-72
2022/04/22 08:12:13;;;;;;;58.03;2.63;;;;;;;;;;5087870;28;20463;-72
2022/04/22 08:14:40;;;;;;;59.40;4.40;;;;;;;;;;5087024;28;20458;-71
2022/04/22 08:17:08;;;;;;;57.67;2.53;;;;;;;;;;5088773;28;20489;-71
2022/04/22 08:19:35;;;;;;;58.00;2.60;;;;;;;;;;5090363;28;20561;-71
2022/04/22 08:22:04;;;;;;;58.07;2.90;;;;;;;;;;5086919;28;20975;-72
2022/04/22 08:24:31;;;;;;;58.03;2.60;;;;;;;;;;5082074;28;20483;-71
2022/04/22 08:26:58;;;;;;;57.97;2.40;;;;;;;;;;5086073;28;20477;-72
2022/04/22 08:29:26;;;;;;;57.90;2.60;;;;;;;;;;5088778;28;20473;-72
2022/04/22 08:31:53;;;;;;;58.03;2.50;;;;;;;;;;5091630;28;20508;-72
2022/04/22 08:34:20;;;;;;;57.67;2.43;;;;;;;;;;5081103;28;20539;-72
2022/04/22 08:36:47;;;;;;;57.90;3.00;;;;;;;;;;5092185;28;20795;-72
2022/04/22 08:39:17;;;;;;;57.73;2.50;;;;;;;;;;5091589;28;20475;-72
2022/04/22 08:41:44;;;;;;;58.13;2.50;;;;;;;;;;5092660;28;20457;-73
2022/04/22 08:44:13;;;;;;;58.20;2.90;;;;;;;;;;5092432;28;20882;-72
2022/04/22 08:52:11;;;;;;;57.77;2.33;;;;;;;;;;5092538;28;20516;-72
2022/04/22 08:54:40;;;;;;;57.90;2.60;;;;;;;;;;5092150;28;20950;-72
2022/04/22 08:57:07;;;;;;;58.10;2.97;;;;;;;;;;5092029;28;20511;-72
2022/04/22 08:59:34;;;;;;;57.97;2.63;;;;;;;;;;5091733;28;20465;-73
2022/04/22 09:02:03;;;;;;;58.03;2.73;;;;;;;;;;5092028;28;20961;-72
2022/04/22 09:04:31;;;;;;;57.90;2.53;;;;;;;;;;5091101;28;20486;-73
2022/04/22 09:06:58;;;;;;;57.90;2.50;;;;;;;;;;5092226;28;20478;-73
2022/04/22 09:09:25;;;;;;;57.87;2.47;;;;;;;;;;5091483;28;20480;-73
2022/04/22 09:11:54;;;;;;;57.93;2.40;;;;;;;;;;5092114;28;20457;-73
2022/04/22 09:14:25;;;;;;;57.80;2.70;;;;;;;;;;5091948;28;20451;-72
2022/04/22 09:16:52;;;;;;;57.93;2.40;;;;;;;;;;5092076;28;20979;-72
2022/04/22 09:19:19;;;;;;;57.70;2.30;;;;;;;;;;5091533;28;20462;-72
2022/04/22 09:21:56;;;;;;;58.50;2.80;;;;;;;;;;5092060;28;20482;-72
2022/04/22 09:24:23;;;;;;;58.03;2.50;;;;;;;;;;5091779;28;20626;-72
2022/04/22 09:27:05;;;;;;;57.97;2.60;;;;;;;;;;5091969;28;20475;-72
2022/04/22 09:29:41;;;;;;;58.10;2.37;;;;;;;;;;5091373;28;20475;-73
2022/04/22 09:32:10;;;;;;;58.03;2.50;;;;;;;;;;5091905;28;20448;-73
2022/04/22 09:34:41;;;;;;;57.97;3.40;;;;;;;;;;5092002;28;20435;-72
2022/04/22 09:42:50;;;;;;;57.50;2.53;;;;;;;;;;5092082;28;20416;-73
2022/04/22 09:45:17;;;;;;;58.10;2.87;;;;;;;;;;5091605;28;20571;-72
2022/04/22 09:47:44;;;;;;;57.97;2.40;;;;;;;;;;5090883;28;20452;-73
2022/04/22 09:50:12;;;;;;;57.53;2.60;;;;;;;;;;5091588;28;21008;-73
2022/04/22 09:52:43;;;;;;;57.83;2.93;;;;;;;;;;5091648;28;20448;-73
2022/04/22 09:55:13;;;;;;;58.43;2.90;;;;;;;;;;5092084;28;20488;-73
2022/04/22 09:57:55;;;;;;;57.97;2.50;;;;;;;;;;5090859;28;20458;-73
2022/04/22 10:00:22;;;;;;;58.17;2.80;;;;;;;;;;5090355;28;20462;-73
2022/04/22 10:02:51;;;;;;;57.57;2.40;;;;;;;;;;5091599;28;20519;-73
2022/04/22 10:05:19;;;;;;;57.67;2.00;;;;;;;;;;5091388;28;20484;-73
2022/04/22 10:07:46;;;;;;;57.87;2.40;;;;;;;;;;5090941;28;20450;-73
2022/04/22 10:10:15;;;;;;;57.87;2.30;;;;;;;;;;5091071;28;20924;-73
2022/04/22 10:12:43;;;;;;;57.57;2.00;;;;;;;;;;5091405;28;20944;-73
2022/04/22 10:15:12;;;;;;;57.53;1.83;;;;;;;;;;5092719;28;20743;-73
2022/04/22 10:17:40;;;;;;;57.47;1.90;;;;;;;;;;5094686;28;20599;-73
2022/04/22 10:20:08;;;;;;;57.27;1.70;;;;;;;;;;5095182;28;20470;-74
2022/04/22 10:22:36;;;;;;;57.27;1.70;;;;;;;;;;5095400;28;20449;-73
2022/04/22 10:25:04;;;;;;;57.33;1.80;;;;;;;;;;5094988;28;20581;-74
2022/04/22 10:27:33;;;;;;;57.37;1.93;;;;;;;;;;5094478;28;20458;-74
2022/04/22 10:30:00;;;;;;;57.27;2.37;;;;;;;;;;5095096;28;20478;-73
2022/04/22 10:32:31;;;;;;;57.27;1.77;;;;;;;;;;5095063;28;20446;-73
2022/04/22 10:34:59;;;;;;;56.87;1.73;;;;;;;;;;5095174;28;20450;-74
2022/04/22 10:37:27;;;;;;;59.20;3.60;;;;;;;;;;5094112;28;20516;-74
2022/04/22 10:39:56;;;;;;;57.07;1.70;;;;;;;;;;5094676;28;20462;-74
2022/04/22 10:42:30;;;;;;;56.73;1.73;;;;;;;;;;5095255;28;20529;-74
2022/04/22 10:47:50;;;;;;;56.77;1.70;;;;;;;;;;5094044;28;20422;-74
2022/04/22 10:50:28;;;;;;;56.90;2.43;;;;;;;;;;5094267;28;20561;-73
2022/04/22 10:53:01;;;;;;;57.10;2.00;;;;;;;;;;5094289;28;20800;-74
2022/04/22 10:55:30;;;;;;;56.97;1.97;;;;;;;;;;5094855;28;20446;-74
2022/04/22 10:58:16;;;;;;;56.67;1.87;;;;;;;;;;5093717;28;20453;-74
2022/04/22 11:00:43;;;;;;;58.10;2.63;;;;;;;;;;5094381;28;20453;-74
2022/04/22 11:03:16;;;;;;;56.77;1.83;;;;;;;;;;5094185;28;20966;-73
2022/04/22 11:05:50;;;;;;;56.60;1.77;;;;;;;;;;5094251;28;20486;-73
2022/04/22 11:08:25;;;;;;;56.93;1.93;;;;;;;;;;5093393;28;21000;-74
2022/04/22 11:10:58;;;;;;;56.90;2.00;;;;;;;;;;5094407;28;20453;-74
2022/04/22 11:13:29;;;;;;;57.27;1.93;;;;;;;;;;5093953;28;20450;-74
2022/04/22 11:16:00;;;;;;;56.77;1.60;;;;;;;;;;5094010;28;20447;-73
2022/04/22 11:18:28;;;;;;;57.00;2.23;;;;;;;;;;5093462;28;20473;-72
2022/04/22 11:21:00;;;;;;;56.67;1.60;;;;;;;;;;5094032;28;20533;-75
2022/04/22 11:23:35;;;;;;;57.00;2.07;;;;;;;;;;5094151;28;20826;-75
2022/04/22 11:26:02;;;;;;;57.57;2.37;;;;;;;;;;5093171;28;20892;-74
2022/04/22 11:28:32;;;;;;;56.60;1.60;;;;;;;;;;5092921;28;20897;-75
2022/04/22 11:31:00;;;;;;;56.80;1.70;;;;;;;;;;5094182;28;20478;-74
2022/04/22 11:33:33;;;;;;;56.87;2.00;;;;;;;;;;5093851;28;20884;-72
2022/04/22 11:36:06;;;;;;;56.37;1.70;;;;;;;;;;5093758;28;20443;-73
2022/04/22 11:38:33;;;;;;;56.47;1.80;;;;;;;;;;5093207;28;20543;-75
2022/04/22 11:41:01;;;;;;;57.10;2.60;;;;;;;;;;5093615;28;20450;-74
2022/04/22 11:43:29;;;;;;;56.90;1.40;;;;;;;;;;5093823;28;20539;-74
2022/04/22 11:45:57;;;;;;;56.67;1.70;;;;;;;;;;5093634;28;20510;-75
2022/04/22 11:48:24;;;;;;;56.70;1.60;;;;;;;;;;5092570;28;20482;-74
2022/04/22 11:50:54;;;;;;;56.57;1.80;;;;;;;;;;5093341;28;20485;-74
2022/04/22 11:53:22;;;;;;;56.97;1.83;;;;;;;;;;5093584;28;20447;-74
2022/04/22 11:55:50;;;;;;;56.90;2.47;;;;;;;;;;5093444;28;20520;-74
2022/04/22 11:58:20;;;;;;;56.90;1.70;;;;;;;;;;5092726;28;20557;-74
2022/04/22 12:06:20;;;;;;;58.70;2.40;;;;;;;;;;5093089;28;20531;-74
2022/04/22 12:08:54;;;;;;;58.10;3.77;;;;;;;;;;5092421;28;20473;-74
2022/04/22 12:11:22;;;;;;;56.80;1.77;;;;;;;;;;5093071;28;20502;-74
2022/04/22 12:13:49;;;;;;;57.10;1.80;;;;;;;;;;5092856;28;20554;-74
2022/04/22 12:16:20;;;;;;;56.57;1.97;;;;;;;;;;5092882;28;20533;-75
2022/04/22 12:18:48;;;;;;;56.37;1.57;;;;;;;;;;5092229;28;20549;-74
2022/04/22 12:21:16;;;;;;;56.40;1.77;;;;;;;;;;5093072;28;20449;-75
2022/04/22 12:23:45;;;;;;;56.47;1.63;;;;;;;;;;5092947;28;20446;-75
2022/04/22 12:26:16;;;;;;;56.50;1.90;;;;;;;;;;5092786;28;20482;-75
2022/04/22 12:28:59;;;;;;;56.37;1.90;;;;;;;;;;5091900;28;21051;-75
2022/04/22 12:31:26;;;;;;;56.80;1.80;;;;;;;;;;5092952;28;20866;-72
2022/04/22 12:33:57;;;;;;;57.30;1.80;;;;;;;;;;5092501;28;20455;-74
2022/04/22 12:36:24;;;;;;;56.77;2.00;;;;;;;;;;5092641;28;20527;-74
2022/04/22 12:38:53;;;;;;;56.77;2.23;;;;;;;;;;5091575;28;20472;-74
2022/04/22 12:41:22;;;;;;;57.47;2.50;;;;;;;;;;5092756;28;20540;-74
2022/04/22 12:43:50;;;;;;;56.97;1.70;;;;;;;;;;5092301;28;20461;-74
2022/04/22 12:52:12;;;;;;;57.10;1.77;;;;;;;;;;5092798;28;20930;-74
2022/04/22 12:54:42;;;;;;;57.27;2.10;;;;;;;;;;5092337;28;20454;-74
2022/04/22 12:57:12;;;;;;;57.27;2.00;;;;;;;;;;5091791;28;20452;-74
2022/04/22 12:59:44;;;;;;;57.17;1.90;;;;;;;;;;5092005;28;20467;-74
2022/04/22 13:02:12;;;;;;;57.30;1.70;;;;;;;;;;5092092;28;20853;-74
2022/04/22 13:04:52;;;;;;;57.00;1.83;;;;;;;;;;5092313;28;20446;-74
2022/04/22 13:07:21;;;;;;;56.80;1.70;;;;;;;;;;5091385;28;20577;-74
2022/04/22 13:09:49;;;;;;;56.93;1.80;;;;;;;;;;5091939;28;21008;-71
2022/04/22 13:12:16;;;;;;;57.20;1.80;;;;;;;;;;5091878;28;20444;-74
2022/04/22 13:14:44;;;;;;;57.60;2.10;;;;;;;;;;5091974;28;20932;-74
2022/04/22 13:17:21;;;;;;;57.37;1.80;;;;;;;;;;5091258;28;20529;-74
2022/04/22 13:19:48;;;;;;;57.27;1.60;;;;;;;;;;5091969;28;20502;-74
2022/04/22 13:22:15;;;;;;;57.47;1.73;;;;;;;;;;5091815;28;21018;-74
2022/04/22 13:24:44;;;;;;;57.60;2.10;;;;;;;;;;5091944;28;21000;-73
2022/04/22 13:27:13;;;;;;;57.80;2.50;;;;;;;;;;5091257;28;20536;-73
2022/04/22 13:29:41;;;;;;;57.47;1.90;;;;;;;;;;5092072;28;20554;-73
2022/04/22 13:32:09;;;;;;;57.70;2.37;;;;;;;;;;5092125;28;20438;-73
2022/04/22 13:34:36;;;;;;;57.33;1.83;;;;;;;;;;5091871;28;20452;-73
2022/04/22 13:37:03;;;;;;;57.47;2.60;;;;;;;;;;5091915;28;20819;-73
2022/04/22 13:39:30;;;;;;;58.87;2.13;;;;;;;;;;5091168;28;20471;-74
2022/04/22 13:41:57;;;;;;;57.10;2.00;;;;;;;;;;5091988;28;20548;-74
2022/04/22 13:52:40;;;;;;;57.07;1.80;;;;;;;;;;5095740;28;20554;-74
2022/04/22 13:55:07;;;;;;;57.00;2.00;;;;;;;;;;5095700;28;20446;-74
2022/04/22 13:57:35;;;;;;;57.07;2.20;;;;;;;;;;5094909;28;20470;-74
2022/04/22 14:00:04;;;;;;;59.40;2.00;;;;;;;;;;5095462;28;20470;-74
2022/04/22 14:02:31;;;;;;;56.63;1.60;;;;;;;;;;5095684;28;20450;-74
2022/04/22 14:04:59;;;;;;;58.50;2.20;;;;;;;;;;5095698;28;20533;-74
2022/04/22 14:07:26;;;;;;;57.60;2.87;;;;;;;;;;5094578;28;20514;-74
2022/04/22 14:09:53;;;;;;;57.27;2.00;;;;;;;;;;5095479;28;20462;-74
2022/04/22 14:12:20;;;;;;;57.50;2.00;;;;;;;;;;5095412;28;20457;-74
2022/04/22 14:14:47;;;;;;;57.03;1.80;;;;;;;;;;5095273;28;20448;-74
2022/04/22 14:17:16;;;;;;;57.37;1.90;;;;;;;;;;5094443;28;20865;-74
2022/04/22 14:19:43;;;;;;;57.27;2.00;;;;;;;;;;5095139;28;20498;-74
2022/04/22 14:22:10;;;;;;;57.33;1.80;;;;;;;;;;5095213;28;20537;-74
2022/04/22 14:24:38;;;;;;;58.07;3.60;;;;;;;;;;5095125;28;20545;-74
2022/04/22 14:27:07;;;;;;;57.07;1.97;;;;;;;;;;5094874;28;20514;-74
2022/04/22 14:29:34;;;;;;;56.80;1.60;;;;;;;;;;5094895;28;20466;-74
2022/04/22 14:32:02;;;;;;;56.80;1.77;;;;;;;;;;5095141;28;20452;-74
2022/04/22 14:34:30;;;;;;;57.50;2.43;;;;;;;;;;5095268;28;20461;-74
2022/04/22 14:36:58;;;;;;;57.20;1.90;;;;;;;;;;5094975;28;20824;-74
2022/04/22 14:39:25;;;;;;;57.27;1.90;;;;;;;;;;5094190;28;20468;-74
2022/04/22 14:41:52;;;;;;;57.30;1.90;;;;;;;;;;5094621;28;20455;-74
2022/04/22 14:44:19;;;;;;;57.30;1.83;;;;;;;;;;5094766;28;20481;-74
2022/04/22 14:46:47;;;;;;;57.37;1.77;;;;;;;;;;5094797;28;20505;-74
2022/04/22 14:49:15;;;;;;;57.57;2.20;;;;;;;;;;5093977;28;20485;-74
2022/04/22 14:51:44;;;;;;;57.50;1.90;;;;;;;;;;5095047;28;20454;-74
2022/04/22 14:54:11;;;;;;;57.37;2.10;;;;;;;;;;5094355;28;21015;-73
2022/04/22 14:56:39;;;;;;;57.40;1.80;;;;;;;;;;5094497;28;20533;-74
2022/04/22 14:59:06;;;;;;;57.27;1.90;;;;;;;;;;5093782;28;20524;-73
2022/04/22 15:01:33;;;;;;;57.33;1.90;;;;;;;;;;5093315;28;20482;-73
2022/04/22 15:04:02;;;;;;;57.23;1.87;;;;;;;;;;5094290;28;20454;-74
2022/04/22 15:06:31;;;;;;;57.67;2.27;;;;;;;;;;5094349;28;20531;-74
2022/04/22 15:09:00;;;;;;;57.67;2.20;;;;;;;;;;5093114;28;20474;-74
2022/04/22 15:11:27;;;;;;;57.37;1.73;;;;;;;;;;5094314;28;20446;-73
2022/04/22 15:13:56;;;;;;;58.10;2.40;;;;;;;;;;5094170;28;20444;-73
2022/04/22 15:16:25;;;;;;;57.47;1.87;;;;;;;;;;5094327;28;20499;-73
2022/04/22 15:24:23;;;;;;;57.50;1.83;;;;;;;;;;5094000;28;20976;-74
2022/04/22 15:26:54;;;;;;;57.27;1.83;;;;;;;;;;5094013;28;20577;-73
2022/04/22 15:29:21;;;;;;;57.17;1.80;;;;;;;;;;5093203;28;20565;-74
2022/04/22 15:31:48;;;;;;;57.13;1.77;;;;;;;;;;5093753;28;20489;-74
2022/04/22 15:34:16;;;;;;;57.30;2.00;;;;;;;;;;5094137;28;20443;-74
2022/04/22 15:36:43;;;;;;;58.77;1.90;;;;;;;;;;5094019;28;20457;-74
2022/04/22 15:39:11;;;;;;;57.17;2.00;;;;;;;;;;5093054;28;20557;-74
2022/04/22 15:41:40;;;;;;;57.13;1.80;;;;;;;;;;5093739;28;20450;-74
2022/04/22 15:44:07;;;;;;;57.20;1.73;;;;;;;;;;5093561;28;20461;-74
2022/04/22 15:46:34;;;;;;;57.43;2.00;;;;;;;;;;5093407;28;20482;-73
2022/04/22 15:49:02;;;;;;;57.13;2.07;;;;;;;;;;5093022;28;20681;-73
2022/04/22 15:51:31;;;;;;;57.27;1.90;;;;;;;;;;5093396;28;20461;-73
2022/04/22 15:53:58;;;;;;;57.30;1.80;;;;;;;;;;5093585;28;20446;-74
2022/04/22 15:56:28;;;;;;;57.23;1.80;;;;;;;;;;5093446;28;20446;-73
2022/04/22 15:58:57;;;;;;;57.37;1.90;;;;;;;;;;5092551;28;20470;-73
2022/04/22 16:01:33;;;;;;;57.27;1.70;;;;;;;;;;5093381;28;20456;-73